Terminal Aerodrome Forecast
Issued by NWS

Home | Current Version | Previous Version | Text Only | Print | Product List | Glossary On
Versions: 1 2 3 4 5 6 7 8 9 10 11 12 13 14 15 16 17 18 19 20 21 22 23 24 25 26 27 28 29 30 31 32 33 34 35 36 37
000
FTAK31 PANC 180534 CCA
TAFADQ
TAF COR
PADQ 180534Z 1806/1906 05015KT 6SM -RA BR SCT015 OVC030
      TEMPO 1806/1808 SCT025 OVC050
     FM180900 05022G30KT 5SM -RA BR SCT010 OVC020
     FM181200 05024G32KT 5SM -RA BR SCT008 OVC015=

USA.gov is the U.S. government's official web portal to all federal, state and local government web resources and services.